createdAt,value
2019-01-20T00:01:02.939Z,29.80
2019-01-20T00:03:32.437Z,26.70
2019-01-20T00:06:01.957Z,31.20
2019-01-20T00:08:31.530Z,28.50
2019-01-20T00:11:01.057Z,30.27
2019-01-20T00:13:30.562Z,27.67
2019-01-20T00:16:00.330Z,31.73
2019-01-20T00:18:30.007Z,28.17
2019-01-20T00:20:59.590Z,29.77
2019-01-20T00:23:29.267Z,31.73
2019-01-20T00:25:58.846Z,30.80
2019-01-20T00:28:28.344Z,27.37
2019-01-20T00:30:57.860Z,25.57
2019-01-20T00:33:27.388Z,27.97
2019-01-20T00:35:57.004Z,28.53
2019-01-20T00:38:26.584Z,27.23
2019-01-20T00:40:56.116Z,26.83
2019-01-20T00:43:25.688Z,29.23
2019-01-20T00:45:55.392Z,28.52
2019-01-20T00:48:24.917Z,28.80
2019-01-20T00:50:55.394Z,28.50
2019-01-20T00:53:24.899Z,30.03
2019-01-20T00:55:54.437Z,25.63
2019-01-20T00:58:23.942Z,27.20
2019-01-20T01:00:53.480Z,25.73
2019-01-20T01:03:23.884Z,31.17
2019-01-20T01:05:53.817Z,27.77
2019-01-20T01:08:23.336Z,28.13
2019-01-20T01:10:52.895Z,27.30
2019-01-20T01:13:22.506Z,30.17
2019-01-20T01:15:52.314Z,26.10
2019-01-20T01:18:21.869Z,29.83
2019-01-20T01:20:51.418Z,26.13
2019-01-20T01:23:20.950Z,27.03
2019-01-20T01:25:50.453Z,25.27
2019-01-20T01:28:20.867Z,27.93
2019-01-20T01:30:50.514Z,26.93
2019-01-20T01:33:20.027Z,26.17
2019-01-20T01:35:49.565Z,24.83
2019-01-20T01:38:19.078Z,23.52
2019-01-20T01:40:49.316Z,25.52
2019-01-20T01:43:18.838Z,24.77
2019-01-20T01:45:48.399Z,27.87
2019-01-20T01:48:17.934Z,25.05
2019-01-20T01:50:47.473Z,22.90
2019-01-20T01:53:17.744Z,25.35
2019-01-20T01:55:47.260Z,24.73
2019-01-20T01:58:16.786Z,19.47
2019-01-20T02:00:46.289Z,25.05
2019-01-20T02:03:15.840Z,27.33
2019-01-20T02:05:46.453Z,25.57
2019-01-20T02:08:15.970Z,21.30
2019-01-20T02:10:45.482Z,20.80
2019-01-20T02:13:15.018Z,21.12
2019-01-20T02:15:44.523Z,20.53
2019-01-20T02:18:15.135Z,21.68
2019-01-20T02:20:44.644Z,25.35
2019-01-20T02:23:14.230Z,22.20
2019-01-20T02:25:43.755Z,22.03
2019-01-20T02:28:13.264Z,22.77
2019-01-20T02:30:43.423Z,22.07
2019-01-20T02:33:12.956Z,20.97
2019-01-20T02:35:42.523Z,23.20
2019-01-20T02:38:12.045Z,22.23
2019-01-20T02:40:41.624Z,24.57
2019-01-20T02:43:12.003Z,24.72
2019-01-20T02:45:41.539Z,23.53
2019-01-20T02:48:11.089Z,20.67
2019-01-20T02:50:40.654Z,21.53
2019-01-20T02:53:10.405Z,24.05
2019-01-20T02:55:40.412Z,21.57
2019-01-20T02:58:09.934Z,19.63
2019-01-20T03:00:39.443Z,24.63
2019-01-20T03:03:09.009Z,23.55
2019-01-20T03:05:38.544Z,20.13
2019-01-20T03:08:08.946Z,23.87
2019-01-20T03:10:38.468Z,21.93
2019-01-20T03:13:08.071Z,20.00
2019-01-20T03:15:37.596Z,23.18
2019-01-20T03:18:07.105Z,20.17
2019-01-20T03:20:37.457Z,24.87
2019-01-20T03:23:06.979Z,22.00
2019-01-20T03:25:36.485Z,20.50
2019-01-20T03:28:06.093Z,23.00
2019-01-20T03:30:54.931Z,20.80
2019-01-20T03:33:24.470Z,27.83
2019-01-20T03:35:53.981Z,26.62
2019-01-20T03:38:23.516Z,25.33
2019-01-20T03:40:53.911Z,24.92
2019-01-20T03:43:23.404Z,22.40
2019-01-20T03:45:52.927Z,24.17
2019-01-20T03:48:22.442Z,27.42
2019-01-20T03:50:51.972Z,20.30
2019-01-20T03:53:22.468Z,18.12
2019-01-20T03:55:51.988Z,18.07
2019-01-20T03:58:21.529Z,19.87
2019-01-20T04:00:51.107Z,23.15
2019-01-20T04:03:20.624Z,17.67
2019-01-20T04:05:51.076Z,21.42
2019-01-20T04:08:20.604Z,21.70
2019-01-20T04:10:50.110Z,22.40
2019-01-20T04:13:19.632Z,20.87
2019-01-20T04:15:49.136Z,21.23
2019-01-20T04:18:19.674Z,19.67
2019-01-20T04:20:49.262Z,17.53
2019-01-20T04:23:18.783Z,22.03
2019-01-20T04:25:48.285Z,21.00
2019-01-20T04:28:17.805Z,26.03
2019-01-20T04:30:48.125Z,23.12
2019-01-20T04:33:17.675Z,23.20
2019-01-20T04:35:47.185Z,25.20
2019-01-20T04:38:16.752Z,19.10
2019-01-20T04:40:46.290Z,24.57
2019-01-20T04:43:16.580Z,18.98
2019-01-20T04:45:46.164Z,20.47
2019-01-20T04:48:15.761Z,21.07
2019-01-20T04:50:45.287Z,17.83
2019-01-20T04:53:14.894Z,21.00
2019-01-20T04:55:45.091Z,22.65
2019-01-20T04:58:15.108Z,22.33
2019-01-20T05:00:44.627Z,21.85
2019-01-20T05:03:14.160Z,20.27
2019-01-20T05:05:43.771Z,19.20
2019-01-20T05:08:13.957Z,23.32
2019-01-20T05:10:43.590Z,17.98
2019-01-20T05:13:13.119Z,23.67
2019-01-20T05:15:42.629Z,21.03
2019-01-20T05:18:12.211Z,21.82
2019-01-20T05:20:42.134Z,22.60
2019-01-20T05:23:11.710Z,18.57
2019-01-20T05:25:41.244Z,18.87
2019-01-20T05:28:10.789Z,20.80
2019-01-20T05:30:40.301Z,24.03
2019-01-20T05:33:10.662Z,19.87
2019-01-20T05:35:40.192Z,22.03
2019-01-20T05:38:09.717Z,21.33
2019-01-20T05:40:39.293Z,19.27
2019-01-20T05:43:08.821Z,23.27
2019-01-20T05:45:39.112Z,19.60
2019-01-20T05:48:08.900Z,25.20
2019-01-20T05:50:38.495Z,20.20
2019-01-20T05:53:08.016Z,19.17
2019-01-20T05:55:37.617Z,22.45
2019-01-20T05:58:07.580Z,19.98
2019-01-20T06:00:37.345Z,18.97
2019-01-20T06:03:06.930Z,19.10
2019-01-20T06:05:36.461Z,19.87
2019-01-20T06:08:06.135Z,20.60
2019-01-20T06:10:36.090Z,18.70
2019-01-20T06:13:05.765Z,20.07
2019-01-20T06:15:35.361Z,20.87
2019-01-20T06:18:04.970Z,20.10
2019-01-20T06:20:34.497Z,19.57
2019-01-20T06:23:04.637Z,20.30
2019-01-20T06:25:34.159Z,22.43
2019-01-20T06:28:03.691Z,21.40
2019-01-20T06:30:33.353Z,23.03
2019-01-20T06:33:02.866Z,21.95
2019-01-20T06:35:32.985Z,23.40
2019-01-20T06:38:02.579Z,21.50
2019-01-20T06:40:32.173Z,19.40
2019-01-20T06:43:02.596Z,19.67
2019-01-20T06:45:32.183Z,22.60
2019-01-20T06:48:01.707Z,26.47
2019-01-20T06:50:31.236Z,26.60
2019-01-20T06:53:00.754Z,27.77
2019-01-20T06:55:30.368Z,29.50
2019-01-20T06:57:59.882Z,30.68
2019-01-20T07:00:30.037Z,21.07
2019-01-20T07:02:59.563Z,31.53
2019-01-20T07:05:29.145Z,24.13
2019-01-20T07:07:58.709Z,22.67
2019-01-20T07:10:28.237Z,22.57
2019-01-20T07:12:58.552Z,25.25
2019-01-20T07:15:28.088Z,22.83
2019-01-20T07:18:16.963Z,24.27
2019-01-20T07:20:46.467Z,21.00
2019-01-20T07:23:15.973Z,19.50
2019-01-20T07:25:45.492Z,19.33
2019-01-20T07:28:14.989Z,22.57
2019-01-20T07:30:44.519Z,19.00
2019-01-20T07:33:14.029Z,21.50
2019-01-20T07:35:43.617Z,19.77
2019-01-20T07:38:13.134Z,20.13
2019-01-20T07:40:42.663Z,21.43
2019-01-20T07:43:16.692Z,24.60
2019-01-20T07:45:43.559Z,18.17
2019-01-20T07:48:13.265Z,23.03
2019-01-20T07:50:43.120Z,20.87
2019-01-20T07:53:12.746Z,19.83
2019-01-20T07:55:42.284Z,19.23
2019-01-20T07:58:11.855Z,19.77
2019-01-20T08:00:41.384Z,20.47
2019-01-20T08:03:10.888Z,19.73
2019-01-20T08:05:40.406Z,24.32
2019-01-20T08:08:09.974Z,21.40
2019-01-20T08:10:58.875Z,22.77
2019-01-20T08:13:28.374Z,18.02
2019-01-20T08:15:57.968Z,19.90
2019-01-20T08:18:27.459Z,19.37
2019-01-20T08:20:56.971Z,20.40
2019-01-20T08:23:26.575Z,21.67
2019-01-20T08:25:56.182Z,17.47
2019-01-20T08:28:25.714Z,23.67
2019-01-20T08:30:55.269Z,24.47
2019-01-20T08:33:24.820Z,29.03
2019-01-20T08:35:54.342Z,28.03
2019-01-20T08:38:23.878Z,26.47
2019-01-20T08:40:53.392Z,30.80
2019-01-20T08:43:22.897Z,32.30
2019-01-20T08:45:57.071Z,29.63
2019-01-20T08:48:27.062Z,27.97
2019-01-20T08:50:57.302Z,27.07
2019-01-20T08:53:28.348Z,28.17
2019-01-20T08:55:57.994Z,26.20
2019-01-20T08:58:27.520Z,27.33
2019-01-20T09:00:57.028Z,28.50
2019-01-20T09:03:26.580Z,25.53
2019-01-20T09:05:56.248Z,29.70
2019-01-20T09:08:25.824Z,27.23
2019-01-20T09:10:55.361Z,28.07
2019-01-20T09:13:24.878Z,28.40
2019-01-20T09:15:54.560Z,51.10
2019-01-20T09:18:24.051Z,24.73
2019-01-20T09:20:53.627Z,25.83
2019-01-20T09:23:23.211Z,31.73
2019-01-20T09:25:52.728Z,30.47
2019-01-20T09:28:22.256Z,33.27
2019-01-20T09:30:51.876Z,28.07
2019-01-20T09:33:24.688Z,27.30
2019-01-20T09:35:52.690Z,30.53
2019-01-20T09:38:22.193Z,24.13
2019-01-20T09:40:51.729Z,209.83
2019-01-20T09:43:21.280Z,26.10
2019-01-20T09:45:51.836Z,32.20
2019-01-20T09:48:21.347Z,26.87
2019-01-20T09:50:51.464Z,33.17
2019-01-20T09:53:22.071Z,31.93
2019-01-20T09:55:51.682Z,23.93
2019-01-20T09:58:21.190Z,26.80
2019-01-20T10:00:50.735Z,27.77
2019-01-20T10:03:21.130Z,26.17
2019-01-20T10:05:50.744Z,30.17
2019-01-20T10:08:20.318Z,33.70
2019-01-20T10:10:49.861Z,32.20
2019-01-20T10:13:19.376Z,38.43
2019-01-20T10:15:48.909Z,28.37
2019-01-20T10:18:18.618Z,32.83
2019-01-20T10:20:48.226Z,30.10
2019-01-20T10:23:17.761Z,30.93
2019-01-20T10:25:47.315Z,31.13
2019-01-20T10:28:16.870Z,27.13
2019-01-20T10:30:46.973Z,25.70
2019-01-20T10:33:16.527Z,29.90
2019-01-20T10:35:50.368Z,24.27
2019-01-20T10:38:19.868Z,20.37
2019-01-20T10:40:49.420Z,14.47
2019-01-20T10:43:18.927Z,15.40
2019-01-20T10:45:48.502Z,15.40
2019-01-20T10:48:18.109Z,14.33
2019-01-20T10:50:47.665Z,15.65
2019-01-20T10:53:36.561Z,18.30
2019-01-20T10:56:17.205Z,10.27
2019-01-20T10:58:46.683Z,10.83
2019-01-20T11:01:29.463Z,12.57
2019-01-20T11:03:59.035Z,10.93
2019-01-20T11:06:28.628Z,9.83
2019-01-20T11:09:17.497Z,6.27
2019-01-20T11:11:47.055Z,7.87
2019-01-20T11:14:16.538Z,6.80
2019-01-20T11:16:46.076Z,7.87
2019-01-20T11:19:15.559Z,7.83
2019-01-20T11:21:45.169Z,7.13
2019-01-20T11:24:14.655Z,5.03
2019-01-20T11:26:44.227Z,6.13
2019-01-20T11:29:13.794Z,6.07
2019-01-20T11:31:43.400Z,5.70
2019-01-20T11:34:12.885Z,8.35
2019-01-20T11:36:42.425Z,12.87
2019-01-20T11:39:11.912Z,13.70
2019-01-20T11:41:41.400Z,27.60
2019-01-20T11:44:16.849Z,15.93
2019-01-20T11:46:42.184Z,8.93
2019-01-20T11:49:11.661Z,6.93
2019-01-20T11:51:41.202Z,7.37
2019-01-20T11:54:10.697Z,6.70
2019-01-20T11:56:40.264Z,6.40
2019-01-20T11:59:09.864Z,6.97
2019-01-20T12:01:39.342Z,8.30
2019-01-20T12:04:08.878Z,6.60
2019-01-20T12:06:38.442Z,9.07
2019-01-20T12:09:09.141Z,6.40
2019-01-20T12:11:38.621Z,7.13
2019-01-20T12:14:08.163Z,6.75
2019-01-20T12:16:37.708Z,6.00
2019-01-20T12:19:07.238Z,7.90
2019-01-20T12:21:36.734Z,6.13
2019-01-20T12:24:06.268Z,7.87
2019-01-20T12:26:35.750Z,6.93
2019-01-20T12:29:05.508Z,6.43
2019-01-20T12:31:35.032Z,9.90
2019-01-20T12:34:04.638Z,7.28
2019-01-20T12:36:34.162Z,9.70
2019-01-20T12:39:23.004Z,12.90
2019-01-20T12:41:52.503Z,15.93
2019-01-20T12:44:22.040Z,10.80
2019-01-20T12:46:51.521Z,14.53
2019-01-20T12:49:21.820Z,9.10
2019-01-20T12:51:51.306Z,12.13
2019-01-20T12:54:20.847Z,15.00
2019-01-20T12:56:50.407Z,20.83
2019-01-20T12:59:19.933Z,7.50
2019-01-20T13:01:49.914Z,11.28
2019-01-20T13:04:19.457Z,8.83
2019-01-20T13:06:48.946Z,8.00
2019-01-20T13:09:18.481Z,8.80
2019-01-20T13:11:47.962Z,5.67
2019-01-20T13:14:17.987Z,9.13
2019-01-20T13:16:47.715Z,4.83
2019-01-20T13:19:17.214Z,8.13
2019-01-20T13:21:46.752Z,23.83
2019-01-20T13:24:16.280Z,11.83
2019-01-20T13:26:46.201Z,7.53
2019-01-20T13:29:35.067Z,21.60
2019-01-20T13:32:04.667Z,8.80
2019-01-20T13:34:34.147Z,5.57
2019-01-20T13:37:03.900Z,6.77
2019-01-20T13:39:33.441Z,6.97
2019-01-20T13:42:02.980Z,9.23
2019-01-20T13:44:32.513Z,11.37
2019-01-20T13:47:01.989Z,6.00
2019-01-20T13:49:31.552Z,6.47
2019-01-20T13:52:01.033Z,6.93
2019-01-20T13:54:30.584Z,7.53
2019-01-20T13:57:00.115Z,6.85
2019-01-20T13:59:29.649Z,6.73
2019-01-20T14:01:59.139Z,7.60
2019-01-20T14:04:28.724Z,7.33
2019-01-20T14:06:58.202Z,5.87
2019-01-20T14:09:27.803Z,6.10
2019-01-20T14:11:58.144Z,7.40
2019-01-20T14:14:27.638Z,6.87
2019-01-20T14:16:57.163Z,8.80
2019-01-20T14:19:26.702Z,7.47
2019-01-20T14:21:56.181Z,8.35
2019-01-20T14:24:26.261Z,7.62
2019-01-20T14:26:55.745Z,6.40
2019-01-20T14:29:25.354Z,6.50
2019-01-20T14:31:54.963Z,6.33
2019-01-20T14:34:24.579Z,8.18
2019-01-20T14:36:54.372Z,9.68
2019-01-20T14:39:23.908Z,8.43
2019-01-20T14:41:53.514Z,6.87
2019-01-20T14:44:23.052Z,7.37
2019-01-20T14:46:52.530Z,7.58
2019-01-20T14:49:41.927Z,7.65
2019-01-20T14:52:24.672Z,9.05
2019-01-20T14:54:54.290Z,7.30
2019-01-20T14:57:23.779Z,7.57
2019-01-20T14:59:53.338Z,8.93
2019-01-20T15:02:23.281Z,8.65
2019-01-20T15:04:52.826Z,8.87
2019-01-20T15:07:22.331Z,7.37
2019-01-20T15:09:51.873Z,10.07
2019-01-20T15:12:21.425Z,9.27
2019-01-20T15:14:51.562Z,8.78
2019-01-20T15:17:21.055Z,8.30
2019-01-20T15:19:50.675Z,10.13
2019-01-20T15:22:20.164Z,8.23
2019-01-20T15:24:49.702Z,7.80
2019-01-20T15:27:19.877Z,9.88
2019-01-20T15:29:49.420Z,8.73
2019-01-20T15:32:18.955Z,8.83
2019-01-20T15:34:48.453Z,8.77
2019-01-20T15:37:18.058Z,9.07
2019-01-20T15:39:48.115Z,8.98
2019-01-20T15:42:17.612Z,9.07
2019-01-20T15:44:47.198Z,8.57
2019-01-20T15:47:16.654Z,10.23
2019-01-20T15:49:46.177Z,9.13
2019-01-20T15:52:16.332Z,12.40
2019-01-20T15:54:45.869Z,9.17
2019-01-20T15:57:15.360Z,11.20
2019-01-20T15:59:44.897Z,9.10
2019-01-20T16:02:14.440Z,10.90
2019-01-20T16:04:44.685Z,11.57
2019-01-20T16:07:33.530Z,13.87
2019-01-20T16:10:16.983Z,10.30
2019-01-20T16:12:47.336Z,9.30
2019-01-20T16:15:26.423Z,12.00
2019-01-20T16:17:56.726Z,11.65
2019-01-20T16:20:27.377Z,14.20
2019-01-20T16:22:57.189Z,14.93
2019-01-20T16:25:30.461Z,15.40
2019-01-20T16:28:00.097Z,12.57
2019-01-20T16:30:33.750Z,12.17
2019-01-20T16:33:03.321Z,14.57
2019-01-20T16:35:33.010Z,12.30
2019-01-20T16:38:03.218Z,14.13
2019-01-20T16:40:32.752Z,14.23
2019-01-20T16:43:02.257Z,14.40
2019-01-20T16:45:42.616Z,13.43
2019-01-20T16:48:12.138Z,13.27
2019-01-20T16:50:41.850Z,11.63
2019-01-20T16:53:11.775Z,15.13
2019-01-20T16:55:41.491Z,15.07
2019-01-20T16:58:11.104Z,14.00
2019-01-20T17:00:42.126Z,18.00
2019-01-20T17:03:11.798Z,14.20
2019-01-20T17:05:41.529Z,14.83
2019-01-20T17:08:11.366Z,18.77
2019-01-20T17:10:41.575Z,19.57
2019-01-20T17:13:11.344Z,22.73
2019-01-20T17:15:42.791Z,24.30
2019-01-20T17:18:13.294Z,25.05
2019-01-20T17:20:42.982Z,23.20
2019-01-20T17:23:12.637Z,28.30
2019-01-20T17:25:42.208Z,20.77
2019-01-20T17:28:11.826Z,16.62
2019-01-20T17:30:42.029Z,13.57
2019-01-20T17:33:12.498Z,16.67
2019-01-20T17:35:42.011Z,17.93
2019-01-20T17:38:11.576Z,18.10
2019-01-20T17:40:41.215Z,16.48
2019-01-20T17:43:10.778Z,15.30
2019-01-20T17:45:47.455Z,14.60
2019-01-20T17:48:14.034Z,18.90
2019-01-20T17:50:43.887Z,17.62
2019-01-20T17:53:13.466Z,14.20
2019-01-20T17:55:43.170Z,18.57
2019-01-20T17:58:12.669Z,21.53
2019-01-20T18:00:43.945Z,15.70
2019-01-20T18:03:13.952Z,20.07
2019-01-20T18:05:43.775Z,17.10
2019-01-20T18:08:13.277Z,21.77
2019-01-20T18:10:42.794Z,20.83
2019-01-20T18:13:12.422Z,19.67
2019-01-20T18:15:42.526Z,20.20
2019-01-20T18:18:12.335Z,21.60
2019-01-20T18:20:41.956Z,28.57
2019-01-20T18:23:11.524Z,18.80
2019-01-20T18:25:41.122Z,24.17
2019-01-20T18:28:10.869Z,19.62
2019-01-20T18:30:40.483Z,22.07
2019-01-20T18:33:10.168Z,21.37
2019-01-20T18:35:39.676Z,21.63
2019-01-20T18:38:09.297Z,23.30
2019-01-20T18:40:39.361Z,22.75
2019-01-20T18:43:08.920Z,22.33
2019-01-20T18:45:38.452Z,23.37
2019-01-20T18:48:08.034Z,27.13
2019-01-20T18:50:38.951Z,25.07
2019-01-20T18:53:08.586Z,25.90
2019-01-20T18:55:38.160Z,27.77
2019-01-20T18:58:07.752Z,21.60
2019-01-20T19:00:46.742Z,20.97
2019-01-20T19:03:16.252Z,24.80
2019-01-20T19:05:45.855Z,23.98
2019-01-20T19:08:15.412Z,22.27
2019-01-20T19:10:44.990Z,22.73
2019-01-20T19:13:14.558Z,25.53
2019-01-20T19:15:44.151Z,29.30
2019-01-20T19:18:18.890Z,25.33
2019-01-20T19:20:45.115Z,23.33
2019-01-20T19:23:14.738Z,22.67
2019-01-20T19:25:44.256Z,29.33
2019-01-20T19:28:13.788Z,23.97
2019-01-20T19:30:43.295Z,25.20
2019-01-20T19:33:12.912Z,26.70
2019-01-20T19:35:42.408Z,29.47
2019-01-20T19:38:12.012Z,30.30
2019-01-20T19:40:41.488Z,26.10
2019-01-20T19:43:11.179Z,30.43
2019-01-20T19:45:40.819Z,32.90
2019-01-20T19:48:13.111Z,33.43
2019-01-20T19:50:41.663Z,29.20
2019-01-20T19:53:11.486Z,32.60
2019-01-20T19:55:40.995Z,36.70
2019-01-20T19:58:10.557Z,31.83
2019-01-20T20:00:40.124Z,33.77
2019-01-20T20:03:09.684Z,33.90
2019-01-20T20:05:39.196Z,38.87
2019-01-20T20:08:08.763Z,37.00
2019-01-20T20:10:38.262Z,44.30
2019-01-20T20:13:07.937Z,37.48
2019-01-20T20:15:37.392Z,35.87
2019-01-20T20:18:07.247Z,35.43
2019-01-20T20:20:36.758Z,41.30
2019-01-20T20:23:06.317Z,39.80
2019-01-20T20:25:36.252Z,36.50
2019-01-20T20:28:06.435Z,39.00
2019-01-20T20:30:36.608Z,37.55
2019-01-20T20:33:06.350Z,41.83
2019-01-20T20:35:36.139Z,33.53
2019-01-20T20:38:05.774Z,37.07
2019-01-20T20:40:35.260Z,38.65
2019-01-20T20:43:04.874Z,40.77
2019-01-20T20:45:34.446Z,36.07
2019-01-20T20:48:04.114Z,39.23
2019-01-20T20:50:33.621Z,40.97
2019-01-20T20:53:03.176Z,41.07
2019-01-20T20:55:32.681Z,37.83
2019-01-20T20:58:02.229Z,42.77
2019-01-20T21:00:36.598Z,46.70
2019-01-20T21:03:10.506Z,44.40
2019-01-20T21:05:40.027Z,47.47
2019-01-20T21:08:09.626Z,42.47
2019-01-20T21:10:39.129Z,37.70
2019-01-20T21:13:08.673Z,39.07
2019-01-20T21:15:38.310Z,40.90
2019-01-20T21:18:07.871Z,37.87
2019-01-20T21:20:37.441Z,38.10
2019-01-20T21:23:12.168Z,39.17
2019-01-20T21:25:38.202Z,39.33
2019-01-20T21:28:07.709Z,46.77
2019-01-20T21:30:37.272Z,42.73
2019-01-20T21:33:07.022Z,44.23
2019-01-20T21:35:36.671Z,44.00
2019-01-20T21:38:06.937Z,43.53
2019-01-20T21:40:36.684Z,46.23
2019-01-20T21:43:06.379Z,46.60
2019-01-20T21:45:36.000Z,44.90
2019-01-20T21:48:05.676Z,45.20
2019-01-20T21:50:35.227Z,45.53
2019-01-20T21:53:04.835Z,51.37
2019-01-20T21:55:34.463Z,48.00
2019-01-20T21:58:04.305Z,44.90
2019-01-20T22:00:33.807Z,47.83
2019-01-20T22:03:03.409Z,49.40
2019-01-20T22:05:32.909Z,49.37
2019-01-20T22:08:02.468Z,47.70
2019-01-20T22:10:31.971Z,49.57
2019-01-20T22:13:20.834Z,54.83
2019-01-20T22:15:50.488Z,53.43
2019-01-20T22:18:39.339Z,50.43
2019-01-20T22:21:08.866Z,56.43
2019-01-20T22:23:38.395Z,55.63
2019-01-20T22:29:08.712Z,54.63
2019-01-20T22:31:39.454Z,58.70
2019-01-20T22:34:08.993Z,57.73
2019-01-20T22:36:38.501Z,55.80
2019-01-20T22:39:08.533Z,58.03
2019-01-20T22:41:38.033Z,56.63
2019-01-20T22:44:08.243Z,59.03
2019-01-20T22:46:37.749Z,53.33
2019-01-20T22:49:07.293Z,56.57
2019-01-20T22:51:36.792Z,51.57
2019-01-20T22:54:06.324Z,54.57
2019-01-20T22:56:36.611Z,51.50
2019-01-20T22:59:06.129Z,55.73
2019-01-20T23:01:36.100Z,52.93
2019-01-20T23:04:06.041Z,50.67
2019-01-20T23:06:35.703Z,54.20
2019-01-20T23:09:07.236Z,54.67
2019-01-20T23:11:36.749Z,54.90
2019-01-20T23:14:06.647Z,51.97
2019-01-20T23:16:36.231Z,54.00
2019-01-20T23:19:06.028Z,56.67
2019-01-20T23:21:36.524Z,53.00
2019-01-20T23:24:06.503Z,54.03
2019-01-20T23:26:36.036Z,54.77
2019-01-20T23:29:05.773Z,56.67
2019-01-20T23:31:35.279Z,53.33
2019-01-20T23:34:05.540Z,56.75
2019-01-20T23:36:35.069Z,52.57
2019-01-20T23:39:06.641Z,55.50
2019-01-20T23:41:36.130Z,56.37
2019-01-20T23:44:05.653Z,52.43
2019-01-20T23:46:35.177Z,53.10
2019-01-20T23:49:04.828Z,57.00
2019-01-20T23:51:34.337Z,53.73
2019-01-20T23:54:04.427Z,52.67
2019-01-20T23:56:33.936Z,50.63
2019-01-20T23:59:03.463Z,53.90
